Time;durP1;ratioP1;P1;durP2;ratioP2;P2;SDS_P1;SDS_P2;PMS_P1;PMS_P2;Temp;Humidity;BMP_temperature;BMP_pressure;BME280_temperature;BME280_humidity;BME280_pressure;Samples;Min_cycle;Max_cycle;Signal;HPM_P1;HPM_P2
2021/09/11 00:00:51;;;;;;;11.70;8.98;;;19.10;66.60;;;;;;5017022;28;20030;-62
2021/09/11 00:03:16;;;;;;;11.45;9.40;;;19.10;66.90;;;;;;5016395;28;20034;-62
2021/09/11 00:05:42;;;;;;;12.20;9.07;;;19.10;66.90;;;;;;5016042;28;20053;-62
2021/09/11 00:08:08;;;;;;;12.18;8.90;;;19.10;67.20;;;;;;5016246;28;20028;-62
2021/09/11 00:10:34;;;;;;;11.10;8.95;;;19.10;67.10;;;;;;5004046;28;20483;-62
2021/09/11 00:12:59;;;;;;;10.75;9.18;;;19.10;67.10;;;;;;4996650;28;20030;-62
2021/09/11 00:15:31;;;;;;;11.10;8.95;;;19.10;67.40;;;;;;4996611;28;20034;-62
2021/09/11 00:17:58;;;;;;;11.52;8.65;;;19.00;67.30;;;;;;4997010;28;20031;-62
2021/09/11 00:20:23;;;;;;;10.48;8.60;;;19.00;67.60;;;;;;5007404;28;20033;-62
2021/09/11 00:22:49;;;;;;;13.02;10.32;;;19.00;67.60;;;;;;5016085;28;20414;-62
2021/09/11 00:25:15;;;;;;;11.20;9.43;;;19.00;67.80;;;;;;5016322;28;20474;-62
2021/09/11 00:27:40;;;;;;;13.27;10.00;;;19.00;67.80;;;;;;4999156;28;20080;-62
2021/09/11 00:30:07;;;;;;;13.15;9.63;;;18.90;67.80;;;;;;4996576;28;20026;-62
2021/09/11 00:32:34;;;;;;;12.27;9.18;;;19.00;68.00;;;;;;4996226;28;20414;-62
2021/09/11 00:35:00;;;;;;;11.88;9.10;;;18.90;68.10;;;;;;5002468;28;20014;-62
2021/09/11 00:37:25;;;;;;;12.20;9.63;;;18.90;68.20;;;;;;5015629;28;20018;-62
2021/09/11 00:39:51;;;;;;;13.05;9.63;;;18.90;68.30;;;;;;5015900;28;20056;-62
2021/09/11 00:42:17;;;;;;;11.77;8.93;;;18.90;68.20;;;;;;5015453;28;20050;-62
2021/09/11 00:44:42;;;;;;;13.55;9.60;;;18.90;68.50;;;;;;5014517;28;20378;-62
2021/09/11 00:47:08;;;;;;;11.27;9.15;;;18.80;68.40;;;;;;5015545;28;20032;-62
2021/09/11 00:49:34;;;;;;;13.48;10.27;;;18.80;68.70;;;;;;5015897;28;20045;-62
2021/09/11 00:51:59;;;;;;;11.68;9.68;;;18.80;68.80;;;;;;5015326;28;20033;-62
2021/09/11 00:54:25;;;;;;;13.13;9.95;;;18.80;69.00;;;;;;5016077;28;20026;-62
2021/09/11 00:56:51;;;;;;;13.43;10.52;;;18.80;69.00;;;;;;5012399;28;20057;-62
2021/09/11 00:59:17;;;;;;;12.63;10.45;;;18.80;69.10;;;;;;5015703;28;20052;-62
2021/09/11 01:01:42;;;;;;;14.55;10.82;;;18.80;69.10;;;;;;5014905;28;20117;-62
2021/09/11 01:04:08;;;;;;;12.57;9.88;;;18.70;69.20;;;;;;5015547;28;20030;-62
2021/09/11 01:06:35;;;;;;;14.85;10.55;;;18.70;69.10;;;;;;5046157;28;20034;-62
2021/09/11 01:09:01;;;;;;;14.00;10.23;;;18.70;69.20;;;;;;5015057;28;20018;-62
2021/09/11 01:11:27;;;;;;;13.82;10.48;;;18.70;69.40;;;;;;5015167;28;20092;-62
2021/09/11 01:13:53;;;;;;;13.40;9.75;;;18.70;69.40;;;;;;5014663;28;20034;-62
2021/09/11 01:16:18;;;;;;;13.60;10.18;;;18.70;69.70;;;;;;5015002;28;20034;-62
2021/09/11 01:18:45;;;;;;;13.90;10.88;;;18.60;69.60;;;;;;5014988;28;20100;-62
2021/09/11 01:21:10;;;;;;;12.70;10.10;;;18.60;69.60;;;;;;5014468;28;20030;-62
2021/09/11 01:23:41;;;;;;;13.38;10.82;;;18.60;69.90;;;;;;5014320;28;20184;-62
2021/09/11 01:26:07;;;;;;;13.75;10.15;;;18.60;69.90;;;;;;5014383;28;20026;-62
2021/09/11 01:28:32;;;;;;;13.95;11.27;;;18.60;70.00;;;;;;5014861;28;20413;-62
2021/09/11 01:30:58;;;;;;;15.75;11.57;;;18.50;69.90;;;;;;5000495;28;20026;-62
2021/09/11 01:33:25;;;;;;;17.38;11.35;;;18.50;70.20;;;;;;4994563;28;20027;-62
2021/09/11 01:35:54;;;;;;;12.88;10.73;;;18.50;70.30;;;;;;5007947;28;20032;-62
2021/09/11 01:38:19;;;;;;;13.00;10.57;;;18.50;70.30;;;;;;5014774;28;20115;-62
2021/09/11 01:40:45;;;;;;;13.73;10.73;;;18.50;70.30;;;;;;5014329;28;20033;-62
2021/09/11 01:43:11;;;;;;;14.50;11.55;;;18.50;70.20;;;;;;5014164;28;20026;-62
2021/09/11 01:45:36;;;;;;;14.68;10.48;;;18.50;70.20;;;;;;5014166;28;20022;-62
2021/09/11 01:48:02;;;;;;;15.80;11.68;;;18.50;70.30;;;;;;5004058;28;20145;-62
2021/09/11 01:50:28;;;;;;;14.63;11.27;;;18.50;70.30;;;;;;4995206;28;20038;-62
2021/09/11 01:52:53;;;;;;;13.23;10.48;;;18.50;70.50;;;;;;5003388;28;20014;-62
2021/09/11 01:55:21;;;;;;;14.45;11.77;;;18.40;70.40;;;;;;5014375;28;20488;-62
2021/09/11 01:57:47;;;;;;;13.35;10.38;;;18.40;70.40;;;;;;5014168;28;20363;-62
2021/09/11 02:00:15;;;;;;;15.48;11.15;;;18.40;70.40;;;;;;5014162;28;20033;-62
2021/09/11 02:02:41;;;;;;;14.13;10.45;;;18.40;70.40;;;;;;5019490;28;20474;-62
2021/09/11 02:05:08;;;;;;;14.57;11.18;;;18.40;70.60;;;;;;5020268;28;20517;-62
2021/09/11 02:07:34;;;;;;;12.68;10.23;;;18.40;70.40;;;;;;5014395;28;20018;-62
2021/09/11 02:10:00;;;;;;;13.10;10.07;;;18.40;70.50;;;;;;5014310;28;20033;-62
2021/09/11 02:12:26;;;;;;;15.35;11.60;;;18.30;70.50;;;;;;5014060;28;20379;-62
2021/09/11 02:14:51;;;;;;;15.93;11.52;;;18.30;70.80;;;;;;5014217;28;20025;-62
2021/09/11 02:17:17;;;;;;;16.20;11.50;;;18.30;70.80;;;;;;5013684;28;20028;-62
2021/09/11 02:19:43;;;;;;;15.30;11.75;;;18.30;70.80;;;;;;5014048;28;20026;-62
2021/09/11 02:22:10;;;;;;;15.18;11.68;;;18.30;70.80;;;;;;5004227;28;20058;-62
2021/09/11 02:24:37;;;;;;;15.50;10.93;;;18.30;70.90;;;;;;4995200;28;20101;-62
2021/09/11 02:27:04;;;;;;;13.82;10.90;;;18.30;71.00;;;;;;4994920;28;20081;-62
2021/09/11 02:29:30;;;;;;;17.25;12.80;;;18.30;71.10;;;;;;4995305;28;20026;-62
2021/09/11 02:31:55;;;;;;;15.00;11.25;;;18.30;71.00;;;;;;4994570;28;20125;-62
2021/09/11 02:34:22;;;;;;;13.77;11.10;;;18.20;71.10;;;;;;4999511;28;20058;-62
2021/09/11 02:36:47;;;;;;;15.90;12.18;;;18.20;71.00;;;;;;5018152;28;20038;-62
2021/09/11 02:39:13;;;;;;;13.98;11.45;;;18.20;71.40;;;;;;5011488;28;20372;-62
2021/09/11 02:41:39;;;;;;;14.23;11.88;;;18.20;71.30;;;;;;4997924;28;20027;-62
2021/09/11 02:44:05;;;;;;;14.57;11.45;;;18.20;71.30;;;;;;4998110;28;20108;-62
2021/09/11 02:46:31;;;;;;;17.25;11.80;;;18.20;71.40;;;;;;5011714;28;20466;-62
2021/09/11 02:48:58;;;;;;;14.45;11.02;;;18.20;71.40;;;;;;5018133;28;20026;-62
2021/09/11 02:51:25;;;;;;;13.68;11.10;;;18.20;71.60;;;;;;5017853;28;20014;-62
2021/09/11 02:53:51;;;;;;;12.45;11.00;;;18.20;71.70;;;;;;5017837;28;20026;-62
2021/09/11 02:56:16;;;;;;;12.98;10.93;;;18.10;71.50;;;;;;5016404;28;20125;-62
2021/09/11 02:58:42;;;;;;;14.13;10.77;;;18.10;71.60;;;;;;4997632;28;20026;-62
2021/09/11 03:01:08;;;;;;;15.27;11.68;;;18.10;71.60;;;;;;4998393;28;20030;-62
2021/09/11 03:03:33;;;;;;;13.32;10.73;;;18.10;71.70;;;;;;4998217;28;20033;-62
2021/09/11 03:05:59;;;;;;;16.50;11.75;;;18.00;71.80;;;;;;4997695;28;20034;-62
2021/09/11 03:08:25;;;;;;;14.40;10.70;;;18.00;71.80;;;;;;4998050;28;20490;-62
2021/09/11 03:10:50;;;;;;;14.82;11.63;;;18.00;72.00;;;;;;5011802;28;20380;-62
2021/09/11 03:13:16;;;;;;;14.95;12.13;;;18.00;72.00;;;;;;5010625;28;20504;-62
2021/09/11 03:15:42;;;;;;;14.15;11.55;;;18.00;72.00;;;;;;4998085;28;20421;-62
2021/09/11 03:18:08;;;;;;;14.65;11.82;;;18.00;72.20;;;;;;4998205;28;20463;-62
2021/09/11 03:20:34;;;;;;;13.45;10.77;;;18.00;72.20;;;;;;4997743;28;20033;-62
2021/09/11 03:23:00;;;;;;;14.05;11.32;;;18.00;72.50;;;;;;4997289;28;20078;-62
2021/09/11 03:25:25;;;;;;;13.95;11.10;;;18.00;72.40;;;;;;5001003;28;20026;-62
2021/09/11 03:27:51;;;;;;;13.25;11.07;;;18.00;72.60;;;;;;5016912;28;20029;-62
2021/09/11 03:30:17;;;;;;;15.13;12.00;;;17.90;72.30;;;;;;5005194;28;20034;-62
2021/09/11 03:32:42;;;;;;;17.35;12.02;;;17.90;72.40;;;;;;4997968;28;20037;-62
2021/09/11 03:35:09;;;;;;;14.57;12.00;;;18.00;72.50;;;;;;5005438;28;20029;-62
2021/09/11 03:37:34;;;;;;;15.52;12.02;;;17.90;72.40;;;;;;5017096;28;20101;-62
2021/09/11 03:40:00;;;;;;;13.32;11.10;;;17.90;72.60;;;;;;5017388;28;20029;-62
2021/09/11 03:42:26;;;;;;;13.43;10.27;;;18.00;72.80;;;;;;5016898;28;20026;-62
2021/09/11 03:44:51;;;;;;;14.32;11.25;;;17.90;72.70;;;;;;5016329;28;20372;-62
2021/09/11 03:47:17;;;;;;;15.25;11.63;;;18.00;72.70;;;;;;5016292;28;20022;-62
2021/09/11 03:49:43;;;;;;;16.15;12.18;;;17.90;73.10;;;;;;5016877;28;20028;-62
2021/09/11 03:52:08;;;;;;;14.05;11.40;;;17.90;72.80;;;;;;5016449;28;20105;-62
2021/09/11 03:54:34;;;;;;;13.85;11.32;;;18.00;73.10;;;;;;5016558;28;20475;-62
2021/09/11 03:57:00;;;;;;;16.77;13.10;;;18.00;73.10;;;;;;5016057;28;20030;-62
2021/09/11 03:59:25;;;;;;;13.50;11.20;;;18.00;73.10;;;;;;5016665;28;20030;-62
2021/09/11 04:01:51;;;;;;;15.10;11.25;;;18.00;73.30;;;;;;5004392;28;20442;-62
2021/09/11 04:04:17;;;;;;;13.60;11.30;;;18.00;73.20;;;;;;4996600;28;20390;-62
2021/09/11 04:06:42;;;;;;;14.85;11.52;;;18.00;73.30;;;;;;4996891;28;20049;-62
2021/09/11 04:09:08;;;;;;;15.25;11.48;;;18.10;73.30;;;;;;4996681;28;20485;-62
2021/09/11 04:11:34;;;;;;;14.82;11.93;;;18.10;73.40;;;;;;4996757;28;20026;-62
2021/09/11 04:13:59;;;;;;;16.08;11.45;;;18.10;73.40;;;;;;4996994;28;20030;-62
2021/09/11 04:16:25;;;;;;;14.50;11.43;;;18.10;73.40;;;;;;4996393;28;20030;-62
2021/09/11 04:18:50;;;;;;;15.43;11.95;;;18.20;73.40;;;;;;5010431;28;20042;-62
2021/09/11 04:21:16;;;;;;;17.88;11.73;;;18.20;73.60;;;;;;5016339;28;20104;-62
2021/09/11 04:23:42;;;;;;;14.45;11.88;;;18.20;73.50;;;;;;5015496;28;20139;-62
2021/09/11 04:26:08;;;;;;;15.10;11.85;;;18.20;73.60;;;;;;5015457;28;20497;-62
2021/09/11 04:28:33;;;;;;;14.70;12.38;;;18.30;73.60;;;;;;5015700;28;20026;-62
2021/09/11 04:30:59;;;;;;;14.73;12.23;;;18.30;73.60;;;;;;5016013;28;20446;-62
2021/09/11 04:33:25;;;;;;;16.25;12.05;;;18.30;73.70;;;;;;5015687;28;20474;-62
2021/09/11 04:35:50;;;;;;;14.65;11.15;;;18.30;73.60;;;;;;5008839;28;20461;-62
2021/09/11 04:38:16;;;;;;;14.40;11.65;;;18.30;73.60;;;;;;5016200;28;20022;-62
2021/09/11 04:40:42;;;;;;;12.75;11.05;;;18.30;73.60;;;;;;5015944;28;20036;-62
2021/09/11 04:43:08;;;;;;;15.50;11.77;;;18.40;73.60;;;;;;5016253;28;20022;-62
2021/09/11 04:45:34;;;;;;;16.30;11.93;;;18.40;73.80;;;;;;5015407;28;20448;-62
2021/09/11 04:48:00;;;;;;;15.05;11.63;;;18.50;73.70;;;;;;5012221;28;20029;-62
2021/09/11 04:50:26;;;;;;;15.25;12.20;;;18.50;73.90;;;;;;5015941;28;20021;-62
2021/09/11 04:52:52;;;;;;;16.60;12.30;;;18.50;73.60;;;;;;5012238;28;20019;-62
2021/09/11 04:55:17;;;;;;;15.18;10.98;;;18.60;73.70;;;;;;4999116;28;20022;-62
2021/09/11 04:57:43;;;;;;;13.88;11.55;;;18.60;73.80;;;;;;5014890;28;20033;-62
2021/09/11 05:00:09;;;;;;;15.95;11.90;;;18.60;73.80;;;;;;5015079;28;20033;-62
2021/09/11 05:02:35;;;;;;;13.38;11.23;;;18.60;73.60;;;;;;5019874;28;20380;-62
2021/09/11 05:05:01;;;;;;;15.45;12.00;;;18.70;73.80;;;;;;5022215;28;20032;-62
2021/09/11 05:07:26;;;;;;;16.60;12.82;;;18.70;73.70;;;;;;5014759;28;20025;-62
2021/09/11 05:09:52;;;;;;;17.30;11.77;;;18.70;73.80;;;;;;5010050;28;20026;-62
2021/09/11 05:12:17;;;;;;;14.75;10.75;;;18.70;74.40;;;;;;4995312;28;20436;-62
2021/09/11 05:14:43;;;;;;;14.98;11.82;;;18.80;73.70;;;;;;4995289;28;20474;-62
2021/09/11 05:17:09;;;;;;;15.98;12.60;;;18.80;73.80;;;;;;4995199;28;20034;-62
2021/09/11 05:19:34;;;;;;;15.32;11.60;;;18.90;73.70;;;;;;4994776;28;20378;-62
2021/09/11 05:22:01;;;;;;;13.85;10.90;;;19.00;73.50;;;;;;4994575;28;20407;-62
2021/09/11 05:24:27;;;;;;;14.57;11.05;;;19.10;73.30;;;;;;4994811;28;20026;-62
2021/09/11 05:26:52;;;;;;;14.40;11.77;;;19.10;73.10;;;;;;5004037;28;20096;-62
2021/09/11 05:29:18;;;;;;;13.20;11.70;;;19.10;73.10;;;;;;5014721;28;20026;-63
2021/09/11 05:31:44;;;;;;;12.93;11.25;;;19.10;73.20;;;;;;5014185;28;20026;-62
2021/09/11 05:34:09;;;;;;;16.80;12.68;;;19.10;73.20;;;;;;5013260;28;20022;-62
2021/09/11 05:36:35;;;;;;;13.43;11.15;;;19.10;73.40;;;;;;4994587;28;20030;-62
2021/09/11 05:39:02;;;;;;;14.05;11.45;;;19.20;73.50;;;;;;4994429;28;20039;-62
2021/09/11 05:41:28;;;;;;;14.98;11.70;;;19.20;73.20;;;;;;4994101;28;20033;-62
2021/09/11 05:43:53;;;;;;;14.73;12.63;;;19.30;73.10;;;;;;5002913;28;20471;-62
2021/09/11 05:46:19;;;;;;;16.92;12.10;;;19.30;73.20;;;;;;5009475;28;20029;-62
2021/09/11 05:48:45;;;;;;;16.95;13.05;;;19.40;73.20;;;;;;5023100;28;20481;-62
2021/09/11 05:51:10;;;;;;;17.95;12.73;;;19.40;73.20;;;;;;5030028;28;20029;-62
2021/09/11 05:53:36;;;;;;;13.88;11.13;;;19.50;73.10;;;;;;5016243;28;20655;-62
2021/09/11 05:56:02;;;;;;;14.63;11.93;;;19.50;73.20;;;;;;5025759;28;20033;-62
2021/09/11 05:58:29;;;;;;;15.25;11.20;;;19.60;73.10;;;;;;5027045;28;20067;-62
2021/09/11 06:00:55;;;;;;;13.20;11.25;;;19.70;73.00;;;;;;5007917;28;20038;-62
2021/09/11 06:03:21;;;;;;;15.23;11.30;;;19.80;73.00;;;;;;5026516;28;20025;-62
2021/09/11 06:05:47;;;;;;;14.20;12.05;;;19.80;72.80;;;;;;5016378;28;20021;-62
2021/09/11 06:08:13;;;;;;;16.02;12.38;;;19.90;72.60;;;;;;5013190;28;20078;-62
2021/09/11 06:10:39;;;;;;;12.30;10.15;;;20.00;72.50;;;;;;5021582;28;20030;-62
2021/09/11 06:13:04;;;;;;;13.52;10.85;;;20.00;72.20;;;;;;5027276;28;20097;-62
2021/09/11 06:15:30;;;;;;;13.02;10.20;;;20.10;72.10;;;;;;5016151;28;20034;-62
2021/09/11 06:17:56;;;;;;;13.77;10.70;;;20.20;72.00;;;;;;5019903;28;20048;-62
2021/09/11 06:20:22;;;;;;;12.80;10.48;;;20.20;71.70;;;;;;5023400;28;20534;-62
2021/09/11 06:22:47;;;;;;;13.55;10.63;;;20.20;71.40;;;;;;5014030;28;20050;-62
2021/09/11 06:25:14;;;;;;;12.32;10.38;;;20.30;71.30;;;;;;5020894;28;20470;-62
2021/09/11 06:27:41;;;;;;;11.35;9.30;;;20.40;71.20;;;;;;5028327;28;20105;-62
2021/09/11 06:30:08;;;;;;;14.07;10.70;;;20.40;70.90;;;;;;5018370;28;20024;-62
2021/09/11 06:32:35;;;;;;;12.00;10.30;;;20.50;70.80;;;;;;5017532;28;20022;-62
2021/09/11 06:35:00;;;;;;;11.48;10.23;;;20.50;70.60;;;;;;5014905;28;20033;-63
2021/09/11 06:37:26;;;;;;;10.93;9.60;;;20.60;70.50;;;;;;5028410;28;20108;-62
2021/09/11 06:39:52;;;;;;;11.88;10.35;;;20.70;70.60;;;;;;5016102;28;20474;-62
2021/09/11 06:42:19;;;;;;;13.55;10.82;;;20.70;70.20;;;;;;5019950;28;20028;-62
2021/09/11 06:44:46;;;;;;;11.00;9.73;;;20.70;70.10;;;;;;5019838;28;20084;-62
2021/09/11 06:47:12;;;;;;;11.95;10.18;;;20.80;70.20;;;;;;5012791;28;20029;-62
2021/09/11 06:49:38;;;;;;;12.40;10.75;;;20.80;69.80;;;;;;5012161;28;20029;-62
2021/09/11 06:52:04;;;;;;;11.57;10.38;;;20.90;69.90;;;;;;5012650;28;20045;-62
2021/09/11 06:54:30;;;;;;;14.18;11.82;;;20.90;69.90;;;;;;5012890;28;20117;-62
2021/09/11 06:56:56;;;;;;;14.23;11.35;;;21.00;70.00;;;;;;5009780;28;20457;-62
2021/09/11 06:59:21;;;;;;;13.13;10.73;;;21.00;69.80;;;;;;5012356;28;20069;-62
2021/09/11 07:01:47;;;;;;;11.55;10.35;;;21.00;69.70;;;;;;5012570;28;20050;-62
2021/09/11 07:04:13;;;;;;;13.32;9.93;;;21.00;69.60;;;;;;5004528;28;20033;-62
2021/09/11 07:06:39;;;;;;;10.32;9.00;;;21.10;69.70;;;;;;4994913;28;20062;-62
2021/09/11 07:09:04;;;;;;;11.32;9.32;;;21.10;69.50;;;;;;5012689;28;20063;-62
2021/09/11 07:11:30;;;;;;;11.85;9.57;;;21.10;69.40;;;;;;5010971;28;20026;-62
2021/09/11 07:13:56;;;;;;;11.60;9.63;;;21.20;69.50;;;;;;5012559;28;20026;-62
2021/09/11 07:16:21;;;;;;;12.32;9.45;;;21.20;69.50;;;;;;5013084;28;20048;-62
2021/09/11 07:18:47;;;;;;;11.50;9.00;;;21.30;69.40;;;;;;5013759;28;20030;-62
2021/09/11 07:21:13;;;;;;;11.52;9.25;;;21.30;69.20;;;;;;4998640;28;20038;-62
2021/09/11 07:23:38;;;;;;;11.00;8.75;;;21.30;69.10;;;;;;4996591;28;20137;-62
2021/09/11 07:26:04;;;;;;;11.65;9.75;;;21.40;69.00;;;;;;5001415;28;20034;-62
2021/09/11 07:28:29;;;;;;;12.80;10.05;;;21.40;69.00;;;;;;4996642;28;20109;-62
2021/09/11 07:30:55;;;;;;;11.48;9.77;;;21.40;69.00;;;;;;4997194;28;20058;-62
2021/09/11 07:33:21;;;;;;;10.65;9.55;;;21.40;68.90;;;;;;4996849;28;20026;-62
2021/09/11 07:35:46;;;;;;;10.32;9.23;;;21.50;68.90;;;;;;5002629;28;20036;-62
2021/09/11 07:38:14;;;;;;;12.35;8.88;;;21.40;68.80;;;;;;5015255;28;20030;-62
2021/09/11 07:40:41;;;;;;;12.00;9.57;;;21.50;68.90;;;;;;5016759;28;20037;-62
2021/09/11 07:43:09;;;;;;;10.52;8.82;;;21.50;68.80;;;;;;5016426;28;20184;-63
2021/09/11 07:45:38;;;;;;;10.60;8.65;;;21.50;68.80;;;;;;5013057;28;20471;-63
2021/09/11 07:48:05;;;;;;;9.65;8.07;;;21.60;68.70;;;;;;5015968;28;20498;-62
2021/09/11 07:50:31;;;;;;;11.02;8.88;;;21.50;68.60;;;;;;5016064;28;20022;-62
2021/09/11 07:52:57;;;;;;;10.43;8.80;;;21.60;68.30;;;;;;5011904;28;20394;-62
2021/09/11 07:55:23;;;;;;;9.27;8.02;;;21.60;68.30;;;;;;5004157;28;20040;-62
2021/09/11 07:57:49;;;;;;;10.45;8.63;;;21.60;68.00;;;;;;5015861;28;20030;-62
2021/09/11 08:00:17;;;;;;;9.85;7.50;;;21.60;67.90;;;;;;5015635;28;20030;-62
2021/09/11 08:02:43;;;;;;;8.32;7.28;;;21.60;68.00;;;;;;5019593;28;20470;-62
2021/09/11 08:05:09;;;;;;;9.50;7.93;;;21.50;67.90;;;;;;5021953;28;20034;-62
2021/09/11 08:07:35;;;;;;;8.43;7.53;;;21.60;68.00;;;;;;5005536;28;20383;-62
2021/09/11 08:10:00;;;;;;;8.45;7.47;;;21.60;67.90;;;;;;4996399;28;20018;-62
2021/09/11 08:12:26;;;;;;;8.45;7.45;;;21.60;67.90;;;;;;5001605;28;20014;-62
2021/09/11 08:14:52;;;;;;;9.95;8.20;;;21.60;68.00;;;;;;5015547;28;20044;-62
2021/09/11 08:17:17;;;;;;;10.85;8.93;;;21.60;68.40;;;;;;5012440;28;20041;-62
2021/09/11 08:19:43;;;;;;;9.48;8.15;;;21.60;68.10;;;;;;4995813;28;20023;-62
2021/09/11 08:22:09;;;;;;;11.63;7.97;;;21.60;68.20;;;;;;4995263;28;20298;-62
2021/09/11 08:24:34;;;;;;;8.80;7.28;;;21.60;68.30;;;;;;4996663;28;20107;-62
2021/09/11 08:27:00;;;;;;;8.95;7.32;;;21.60;68.20;;;;;;5015374;28;20033;-62
2021/09/11 08:29:25;;;;;;;8.73;7.55;;;21.70;69.00;;;;;;4998777;28;20410;-62
2021/09/11 08:31:51;;;;;;;8.93;7.88;;;21.70;68.10;;;;;;4995675;28;20088;-62
2021/09/11 08:34:17;;;;;;;8.00;7.20;;;21.70;68.20;;;;;;5002330;28;20030;-62
2021/09/11 08:36:43;;;;;;;8.32;7.07;;;21.70;68.30;;;;;;4995809;28;20026;-62
2021/09/11 08:39:09;;;;;;;7.43;6.50;;;21.70;68.80;;;;;;4996031;28;20395;-62
2021/09/11 08:41:35;;;;;;;9.63;7.80;;;21.80;68.20;;;;;;4995708;28;20026;-62
2021/09/11 08:44:01;;;;;;;7.30;6.50;;;21.80;68.10;;;;;;4995464;28;20450;-62
2021/09/11 08:46:31;;;;;;;8.32;6.35;;;21.80;68.40;;;;;;5013972;28;20120;-62
2021/09/11 08:48:57;;;;;;;7.65;6.55;;;21.80;68.20;;;;;;5026355;28;20026;-62
2021/09/11 08:51:24;;;;;;;8.25;7.13;;;21.90;68.80;;;;;;5012234;28;20057;-62
2021/09/11 08:53:49;;;;;;;9.38;7.03;;;21.90;68.30;;;;;;5014533;28;20367;-63
2021/09/11 08:56:15;;;;;;;7.30;6.53;;;21.90;68.20;;;;;;5014978;28;20053;-62
2021/09/11 08:58:43;;;;;;;8.00;7.10;;;21.90;68.10;;;;;;5015114;28;20026;-62
2021/09/11 09:01:09;;;;;;;8.00;6.53;;;22.00;68.20;;;;;;5012305;28;20026;-62
2021/09/11 09:03:41;;;;;;;8.05;6.55;;;22.00;68.00;;;;;;4997901;28;20386;-62
2021/09/11 09:06:31;;;;;;;17.35;8.30;;;22.00;67.60;;;;;;5014538;28;20100;-62
2021/09/11 09:09:09;;;;;;;8.38;6.28;;;22.00;67.50;;;;;;4997921;28;20521;-62
2021/09/11 09:11:40;;;;;;;8.48;6.22;;;22.00;67.20;;;;;;4998444;28;20097;-62
2021/09/11 09:14:08;;;;;;;7.63;6.22;;;22.00;67.10;;;;;;4998046;28;20102;-62
2021/09/11 09:16:37;;;;;;;7.95;6.78;;;22.10;67.10;;;;;;5002960;28;20030;-62
2021/09/11 09:19:17;;;;;;;8.13;6.82;;;22.10;67.40;;;;;;5021710;28;20033;-62
2021/09/11 09:21:45;;;;;;;7.53;6.30;;;22.10;67.20;;;;;;5010080;28;20505;-62
2021/09/11 09:24:13;;;;;;;7.43;6.32;;;22.20;67.30;;;;;;5017934;28;20030;-62
2021/09/11 09:26:59;;;;;;;8.43;6.22;;;22.10;67.30;;;;;;5017073;28;20058;-62
2021/09/11 09:29:26;;;;;;;7.70;6.63;;;22.20;67.20;;;;;;5019319;28;20041;-62
2021/09/11 09:31:55;;;;;;;7.72;5.88;;;22.20;67.20;;;;;;5020495;28;20036;-62
2021/09/11 09:34:38;;;;;;;8.70;6.60;;;22.20;67.10;;;;;;5020464;28;20077;-62
2021/09/11 09:37:15;;;;;;;7.00;5.95;;;22.20;66.70;;;;;;5009851;28;20026;-62
2021/09/11 09:39:49;;;;;;;7.82;5.95;;;22.30;66.40;;;;;;5000633;28;20053;-62
2021/09/11 09:42:18;;;;;;;7.20;5.72;;;22.30;66.30;;;;;;5017119;28;20136;-62
2021/09/11 09:44:49;;;;;;;7.32;5.93;;;22.30;66.70;;;;;;5021086;28;20034;-62
2021/09/11 09:47:17;;;;;;;6.80;5.90;;;22.30;66.50;;;;;;5018632;28;20045;-62
2021/09/11 09:50:05;;;;;;;7.00;6.13;;;22.40;66.60;;;;;;5020246;28;20022;-62
2021/09/11 09:52:33;;;;;;;7.13;6.20;;;22.40;66.50;;;;;;5013083;28;20018;-62
2021/09/11 09:54:59;;;;;;;7.82;7.03;;;22.40;66.30;;;;;;5000183;28;20082;-62
2021/09/11 09:57:26;;;;;;;8.88;6.15;;;22.40;66.20;;;;;;5003459;28;20034;-62
2021/09/11 09:59:52;;;;;;;7.97;6.18;;;22.40;65.80;;;;;;5020288;28;20065;-62
2021/09/11 10:02:18;;;;;;;8.38;5.88;;;22.50;65.60;;;;;;5019076;28;20026;-62
2021/09/11 10:04:43;;;;;;;7.85;6.40;;;22.50;65.50;;;;;;5020378;28;20034;-62
2021/09/11 10:07:10;;;;;;;8.30;6.22;;;22.50;65.00;;;;;;5019844;28;20392;-62
2021/09/11 10:09:36;;;;;;;8.35;6.18;;;22.50;64.70;;;;;;5003594;28;20037;-62
2021/09/11 10:12:03;;;;;;;6.88;5.82;;;22.50;63.90;;;;;;5000096;28;20030;-62
2021/09/11 10:14:33;;;;;;;8.18;5.70;;;22.60;63.50;;;;;;5003071;28;20069;-62
2021/09/11 10:17:04;;;;;;;8.70;6.22;;;22.60;63.30;;;;;;5019011;28;20430;-62
2021/09/11 10:19:31;;;;;;;7.65;6.13;;;22.60;63.10;;;;;;5019047;28;20089;-63
2021/09/11 10:22:16;;;;;;;7.50;6.10;;;22.60;62.80;;;;;;5018900;28;20054;-62
2021/09/11 10:24:47;;;;;;;6.70;5.65;;;22.70;62.40;;;;;;5013026;28;20388;-62
2021/09/11 10:27:22;;;;;;;6.45;5.38;;;22.70;62.70;;;;;;4999964;28;20117;-62
2021/09/11 10:29:50;;;;;;;5.80;4.68;;;22.70;61.80;;;;;;5009828;28;20057;-62
2021/09/11 10:32:36;;;;;;;7.70;5.97;;;22.70;61.60;;;;;;5019048;28;20034;-62
2021/09/11 10:35:06;;;;;;;6.70;5.60;;;22.70;61.40;;;;;;5016921;28;20022;-62
2021/09/11 10:37:38;;;;;;;6.80;5.68;;;22.80;60.90;;;;;;5014657;28;20101;-62
2021/09/11 10:40:28;;;;;;;6.60;5.53;;;22.80;60.40;;;;;;5001166;28;20025;-62
2021/09/11 10:43:16;;;;;;;7.30;5.68;;;22.80;60.90;;;;;;5006982;28;20030;-62
2021/09/11 10:46:08;;;;;;;6.18;5.50;;;22.90;60.00;;;;;;5016021;28;20029;-62
2021/09/11 10:48:48;;;;;;;6.85;5.43;;;22.90;60.00;;;;;;5014842;28;20027;-62
2021/09/11 10:51:29;;;;;;;6.23;5.30;;;22.90;61.00;;;;;;5017550;28;20018;-62
2021/09/11 10:54:22;;;;;;;6.72;5.50;;;22.90;60.50;;;;;;5019648;28;20061;-62
2021/09/11 10:56:47;;;;;;;8.38;5.63;;;23.00;60.50;;;;;;5017108;28;20129;-62
2021/09/11 10:59:16;;;;;;;6.63;5.50;;;23.00;60.60;;;;;;5020785;28;20552;-62
2021/09/11 11:02:15;;;;;;;7.07;5.32;;;23.00;59.90;;;;;;5001512;28;20030;-62
2021/09/11 11:04:47;;;;;;;8.10;5.97;;;23.00;59.40;;;;;;5010909;28;20163;-62
2021/09/11 11:07:14;;;;;;;6.20;5.00;;;23.00;59.70;;;;;;5028395;28;20036;-62
2021/09/11 11:09:57;;;;;;;6.65;5.70;;;23.00;58.90;;;;;;5040693;28;20025;-62
2021/09/11 11:12:26;;;;;;;7.15;6.20;;;23.10;59.00;;;;;;5012076;28;20064;-62
2021/09/11 11:15:02;;;;;;;7.15;5.80;;;23.10;58.70;;;;;;5002258;28;20101;-62
2021/09/11 11:17:29;;;;;;;7.05;6.05;;;23.10;58.20;;;;;;5011819;28;20483;-62
2021/09/11 11:19:56;;;;;;;7.30;5.95;;;23.10;57.90;;;;;;5000446;28;20030;-62
2021/09/11 11:22:29;;;;;;;6.53;5.50;;;23.10;57.50;;;;;;5002400;28;20050;-63
2021/09/11 11:24:55;;;;;;;6.57;5.47;;;23.20;57.40;;;;;;5019616;28;20101;-62
2021/09/11 11:27:26;;;;;;;5.85;5.18;;;23.20;57.20;;;;;;5013990;28;20030;-62
2021/09/11 11:29:53;;;;;;;6.13;5.10;;;23.20;57.20;;;;;;5000130;28;20026;-62
2021/09/11 11:32:20;;;;;;;6.07;5.20;;;23.20;57.00;;;;;;5000599;28;20026;-62
2021/09/11 11:34:49;;;;;;;8.15;6.05;;;23.30;56.80;;;;;;5000824;28;20548;-62
2021/09/11 11:37:19;;;;;;;6.80;6.10;;;23.20;56.30;;;;;;5001140;28;20033;-62
2021/09/11 11:39:47;;;;;;;8.60;6.85;;;23.30;56.30;;;;;;5006331;28;20033;-62
2021/09/11 11:42:13;;;;;;;8.00;6.72;;;23.30;56.10;;;;;;5020113;28;20026;-62
2021/09/11 11:44:41;;;;;;;8.35;6.43;;;23.30;56.20;;;;;;5005443;28;20172;-62
2021/09/11 11:47:46;;;;;;;8.40;6.40;;;23.30;55.80;;;;;;5020638;28;20041;-62
2021/09/11 11:50:32;;;;;;;9.30;6.88;;;23.30;55.60;;;;;;5009698;28;20033;-62
2021/09/11 11:53:09;;;;;;;7.68;6.15;;;23.30;55.80;;;;;;5001827;28;20022;-62
2021/09/11 11:55:45;;;;;;;7.22;6.40;;;23.30;55.80;;;;;;5017342;28;20030;-62
2021/09/11 11:58:13;;;;;;;7.90;5.70;;;23.30;55.70;;;;;;5019098;28;20026;-62
2021/09/11 12:00:51;;;;;;;7.28;5.93;;;23.30;55.60;;;;;;5004037;28;20386;-63
2021/09/11 12:03:43;;;;;;;7.47;6.00;;;23.30;55.50;;;;;;5002568;28;20101;-63
2021/09/11 12:06:15;;;;;;;8.00;6.35;;;23.30;55.20;;;;;;5006367;28;20429;-62
2021/09/11 12:08:42;;;;;;;7.93;6.13;;;23.30;55.00;;;;;;5021111;28;20038;-62
2021/09/11 12:11:20;;;;;;;8.18;6.18;;;23.30;55.00;;;;;;5022030;28;20021;-62
2021/09/11 12:13:48;;;;;;;6.95;6.10;;;23.30;54.90;;;;;;5020387;28;20049;-63
2021/09/11 12:16:15;;;;;;;9.27;7.03;;;23.30;54.70;;;;;;5015687;28;20108;-62
2021/09/11 12:18:40;;;;;;;7.43;6.47;;;23.30;54.80;;;;;;5020026;28;20029;-62
2021/09/11 12:21:09;;;;;;;8.45;6.38;;;23.30;55.00;;;;;;5020158;28;20028;-62
2021/09/11 12:23:37;;;;;;;8.50;7.43;;;23.30;54.90;;;;;;5001728;28;20062;-62
2021/09/11 12:26:05;;;;;;;8.65;6.97;;;23.30;54.90;;;;;;5014265;28;20026;-62
2021/09/11 12:28:40;;;;;;;8.95;6.25;;;23.30;54.70;;;;;;5000226;28;20486;-62
2021/09/11 12:31:21;;;;;;;8.27;6.68;;;23.30;54.50;;;;;;5011676;28;20389;-62
2021/09/11 12:33:56;;;;;;;7.95;6.22;;;23.30;54.30;;;;;;5019649;28;20089;-63
2021/09/11 12:36:30;;;;;;;7.75;6.00;;;23.30;54.20;;;;;;5020068;28;20022;-62
2021/09/11 12:38:58;;;;;;;6.95;5.57;;;23.30;54.10;;;;;;5014073;28;20030;-62